Time;durP1;ratioP1;P1;durP2;ratioP2;P2;SDS_P1;SDS_P2;PMS_P1;PMS_P2;Temp;Humidity;BMP_temperature;BMP_pressure;BME280_temperature;BME280_humidity;BME280_pressure;Samples;Min_cycle;Max_cycle;Signal;HPM_P1;HPM_P2
2024/03/08 00:00:44;;;;;;;15.05;3.50;;;;;;;;;;4995117;28;20033;-83
2024/03/08 00:03:10;;;;;;;;;;;;;;;;;;4998510;28;20685;-83
2024/03/08 00:05:39;;;;;;;14.10;3.35;;;;;;;;;;5000212;28;20011;-84
2024/03/08 00:08:09;;;;;;;15.05;3.67;;;;;;;;;;4996235;28;20030;-83
2024/03/08 00:10:35;;;;;;;18.67;3.67;;;;;;;;;;4985665;28;20040;-82
2024/03/08 00:13:04;;;;;;;16.35;3.58;;;;;;;;;;5001597;28;20029;-83
2024/03/08 00:15:32;;;;;;;14.07;3.42;;;;;;;;;;4982354;28;20701;-84
2024/03/08 00:17:58;;;;;;;15.73;4.05;;;;;;;;;;4984334;28;20036;-83
2024/03/08 00:20:24;;;;;;;16.35;3.97;;;;;;;;;;4980762;28;20052;-83
2024/03/08 00:22:51;;;;;;;20.45;4.00;;;;;;;;;;4984998;28;20030;-84
2024/03/08 00:25:18;;;;;;;14.13;3.55;;;;;;;;;;4999658;28;20029;-84
2024/03/08 00:27:44;;;;;;;16.73;3.50;;;;;;;;;;4982530;28;20117;-83
2024/03/08 00:30:12;;;;;;;;;;;;;;;;;;4995597;28;20425;-82
2024/03/08 00:32:39;;;;;;;17.95;3.63;;;;;;;;;;5002426;28;19913;-85
2024/03/08 00:35:07;;;;;;;15.40;3.50;;;;;;;;;;4998050;28;20029;-82
2024/03/08 00:37:34;;;;;;;14.32;3.55;;;;;;;;;;5000477;28;20036;-85
2024/03/08 00:40:00;;;;;;;13.73;3.28;;;;;;;;;;4980416;28;20034;-85
2024/03/08 00:42:27;;;;;;;15.77;3.92;;;;;;;;;;4996262;28;20168;-85
2024/03/08 00:44:53;;;;;;;19.23;4.20;;;;;;;;;;4983196;28;20057;-85
2024/03/08 00:47:19;;;;;;;;;;;;;;;;;;4979724;28;20076;-85
2024/03/08 00:49:45;;;;;;;16.95;3.65;;;;;;;;;;4989910;28;19914;-84
2024/03/08 00:52:11;;;;;;;;;;;;;;;;;;4976956;28;20030;-83
2024/03/08 00:54:37;;;;;;;22.80;4.40;;;;;;;;;;4994704;28;19924;-83
2024/03/08 00:57:03;;;;;;;;;;;;;;;;;;4977481;28;20045;-82
2024/03/08 00:59:32;;;;;;;18.00;3.92;;;;;;;;;;4992601;28;19912;-83
2024/03/08 01:02:00;;;;;;;20.42;4.72;;;;;;;;;;4981856;28;20041;-83
2024/03/08 01:04:28;;;;;;;18.50;3.90;;;;;;;;;;5001083;28;20036;-83
2024/03/08 01:06:56;;;;;;;22.23;4.53;;;;;;;;;;4979688;28;20371;-83
2024/03/08 01:09:23;;;;;;;16.20;3.63;;;;;;;;;;4995186;28;20052;-85
2024/03/08 01:11:49;;;;;;;19.02;4.07;;;;;;;;;;4998226;28;20029;-84
2024/03/08 01:14:15;;;;;;;17.50;4.07;;;;;;;;;;4981238;28;20112;-84
2024/03/08 01:16:41;;;;;;;;;;;;;;;;;;4982365;28;20038;-84
2024/03/08 01:19:08;;;;;;;15.60;3.78;;;;;;;;;;4996147;28;19914;-85
2024/03/08 01:21:34;;;;;;;15.40;3.53;;;;;;;;;;4981770;28;20060;-82
2024/03/08 01:24:00;;;;;;;;;;;;;;;;;;4981285;28;20556;-86
2024/03/08 01:26:26;;;;;;;14.10;3.53;;;;;;;;;;4979533;28;19920;-85
2024/03/08 01:28:52;;;;;;;;;;;;;;;;;;4978676;28;20124;-83
2024/03/08 01:31:19;;;;;;;18.92;3.42;;;;;;;;;;4975093;28;20024;-82
2024/03/08 01:33:45;;;;;;;18.15;3.67;;;;;;;;;;4979047;28;20022;-83
2024/03/08 01:36:15;;;;;;;16.75;3.50;;;;;;;;;;4979698;28;20065;-85
2024/03/08 01:38:41;;;;;;;18.10;3.80;;;;;;;;;;4977275;28;20108;-82
2024/03/08 01:41:07;;;;;;;;;;;;;;;;;;4979136;28;20040;-83
2024/03/08 01:43:33;;;;;;;16.58;3.80;;;;;;;;;;5000400;28;20313;-83
2024/03/08 01:45:59;;;;;;;;;;;;;;;;;;4984103;28;20045;-84
2024/03/08 01:48:26;;;;;;;18.17;3.92;;;;;;;;;;4984862;28;19920;-84
2024/03/08 01:50:54;;;;;;;22.42;4.10;;;;;;;;;;5001546;28;20038;-83
2024/03/08 01:53:20;;;;;;;19.30;3.97;;;;;;;;;;4978201;28;20605;-83
2024/03/08 01:55:49;;;;;;;20.77;4.65;;;;;;;;;;4995619;28;20367;-83
2024/03/08 01:58:16;;;;;;;22.58;4.35;;;;;;;;;;4993421;28;20037;-85
2024/03/08 02:00:41;;;;;;;;;;;;;;;;;;4979298;28;20405;-83
2024/03/08 02:03:08;;;;;;;20.23;4.47;;;;;;;;;;4992043;28;20798;-83
2024/03/08 02:05:34;;;;;;;;;;;;;;;;;;4993049;28;20022;-84
2024/03/08 02:08:00;;;;;;;19.85;4.80;;;;;;;;;;4992632;28;19940;-84
2024/03/08 02:10:26;;;;;;;;;;;;;;;;;;4980741;28;20045;-83
2024/03/08 02:12:52;;;;;;;18.30;4.50;;;;;;;;;;4988375;28;19912;-82
2024/03/08 02:15:18;;;;;;;;;;;;;;;;;;4997829;28;20042;-83
2024/03/08 02:17:44;;;;;;;18.60;4.10;;;;;;;;;;5000047;28;19915;-84
2024/03/08 02:20:13;;;;;;;23.75;4.75;;;;;;;;;;4994946;28;20034;-84
2024/03/08 02:22:39;;;;;;;22.02;4.72;;;;;;;;;;4987807;28;20362;-83
2024/03/08 02:25:05;;;;;;;;;;;;;;;;;;4992386;28;20076;-85
2024/03/08 02:27:31;;;;;;;22.70;5.55;;;;;;;;;;5018935;28;19936;-84
2024/03/08 02:29:57;;;;;;;;;;;;;;;;;;4997101;28;20057;-84
2024/03/08 02:32:24;;;;;;;21.73;4.55;;;;;;;;;;4988420;28;19923;-85
2024/03/08 02:34:50;;;;;;;20.02;5.10;;;;;;;;;;4985924;28;20452;-84
2024/03/08 02:37:16;;;;;;;;;;;;;;;;;;4981911;28;20041;-85
2024/03/08 02:39:42;;;;;;;24.00;5.35;;;;;;;;;;4994901;28;19987;-83
2024/03/08 02:42:08;;;;;;;24.15;5.13;;;;;;;;;;4999320;28;20152;-83
2024/03/08 02:44:34;;;;;;;22.27;5.00;;;;;;;;;;4997831;28;20112;-83
2024/03/08 02:47:00;;;;;;;19.95;6.43;;;;;;;;;;4979326;28;20073;-84
2024/03/08 02:49:27;;;;;;;30.05;13.77;;;;;;;;;;4998163;28;21308;-83
2024/03/08 02:51:53;;;;;;;26.52;7.97;;;;;;;;;;5000271;28;20801;-84
2024/03/08 02:54:20;;;;;;;27.52;6.85;;;;;;;;;;4986549;28;20846;-84
2024/03/08 02:56:47;;;;;;;23.00;6.13;;;;;;;;;;4977719;28;20044;-84
2024/03/08 02:59:14;;;;;;;27.45;6.90;;;;;;;;;;4996929;28;20036;-85
2024/03/08 03:01:41;;;;;;;21.25;6.55;;;;;;;;;;4978547;28;20088;-85
2024/03/08 03:04:07;;;;;;;25.15;6.57;;;;;;;;;;4994009;28;20124;-86
2024/03/08 03:06:33;;;;;;;30.33;6.60;;;;;;;;;;4982158;28;20065;-85
2024/03/08 03:08:59;;;;;;;20.90;5.80;;;;;;;;;;4992859;28;20045;-84
2024/03/08 03:11:26;;;;;;;29.55;6.43;;;;;;;;;;4985395;28;20755;-84
2024/03/08 03:13:53;;;;;;;25.17;5.75;;;;;;;;;;5002821;28;20037;-84
2024/03/08 03:16:22;;;;;;;19.75;4.95;;;;;;;;;;4997051;28;20044;-84
2024/03/08 03:18:49;;;;;;;23.63;5.32;;;;;;;;;;4989898;28;20081;-85
2024/03/08 03:21:15;;;;;;;22.27;5.38;;;;;;;;;;4996340;28;20026;-84
2024/03/08 03:23:44;;;;;;;20.75;5.03;;;;;;;;;;4980233;28;20025;-83
2024/03/08 03:26:17;;;;;;;22.08;4.95;;;;;;;;;;4992963;28;20034;-83
2024/03/08 03:28:43;;;;;;;25.60;5.20;;;;;;;;;;5004022;28;20026;-85
2024/03/08 03:31:14;;;;;;;23.90;5.78;;;;;;;;;;4985295;28;20032;-84
2024/03/08 03:33:40;;;;;;;23.08;5.47;;;;;;;;;;5010420;28;20036;-84
2024/03/08 03:36:08;;;;;;;18.05;4.72;;;;;;;;;;4997791;28;20030;-84
2024/03/08 03:38:34;;;;;;;21.80;5.50;;;;;;;;;;5002874;28;20042;-84
2024/03/08 03:41:09;;;;;;;23.08;5.13;;;;;;;;;;4988805;28;20076;-84
2024/03/08 03:43:37;;;;;;;22.70;5.20;;;;;;;;;;4985751;28;20040;-83
2024/03/08 03:46:06;;;;;;;26.00;5.63;;;;;;;;;;4980732;28;20034;-85
2024/03/08 03:48:32;;;;;;;21.30;5.25;;;;;;;;;;4998619;28;20082;-84
2024/03/08 03:50:58;;;;;;;21.88;5.03;;;;;;;;;;4983479;28;20045;-84
2024/03/08 03:53:25;;;;;;;;;;;;;;;;;;4986756;28;20042;-84
2024/03/08 03:55:51;;;;;;;;;;;;;;;;;;4985808;28;20016;-84
2024/03/08 03:58:22;;;;;;;25.45;5.00;;;;;;;;;;4985727;28;21791;-84
2024/03/08 04:00:49;;;;;;;22.42;4.80;;;;;;;;;;4978789;28;20872;-84
2024/03/08 04:03:16;;;;;;;22.52;5.35;;;;;;;;;;4975418;28;20030;-83
2024/03/08 04:05:42;;;;;;;26.48;5.53;;;;;;;;;;4994523;28;20124;-85
2024/03/08 04:08:08;;;;;;;;;;;;;;;;;;4975613;28;20026;-82
2024/03/08 04:10:35;;;;;;;28.13;6.03;;;;;;;;;;4974947;28;19924;-81
2024/03/08 04:13:01;;;;;;;28.02;6.53;;;;;;;;;;4970456;28;20037;-81
2024/03/08 04:15:27;;;;;;;23.05;5.82;;;;;;;;;;4977951;28;20037;-82
2024/03/08 04:17:53;;;;;;;24.95;5.80;;;;;;;;;;4977162;28;20041;-81
2024/03/08 04:20:21;;;;;;;25.33;5.85;;;;;;;;;;4975158;28;20674;-82
2024/03/08 04:22:49;;;;;;;25.50;6.07;;;;;;;;;;4993093;28;20040;-82
2024/03/08 04:25:15;;;;;;;26.40;6.35;;;;;;;;;;4988888;28;20133;-82
2024/03/08 04:27:41;;;;;;;21.17;6.15;;;;;;;;;;4975577;28;20037;-82
2024/03/08 04:30:07;;;;;;;25.30;6.75;;;;;;;;;;4971995;28;20030;-82
2024/03/08 04:32:33;;;;;;;16.98;4.28;;;;;;;;;;4992044;28;20046;-84
2024/03/08 04:35:01;;;;;;;14.48;3.60;;;;;;;;;;4974208;28;20043;-82
2024/03/08 04:37:29;;;;;;;13.80;3.17;;;;;;;;;;4993501;28;20072;-83
2024/03/08 04:39:55;;;;;;;14.40;3.92;;;;;;;;;;4995254;28;20036;-85
2024/03/08 04:42:22;;;;;;;16.73;4.80;;;;;;;;;;4988124;28;20057;-85
2024/03/08 04:44:48;;;;;;;18.30;4.82;;;;;;;;;;4993873;28;20022;-85
2024/03/08 04:47:14;;;;;;;;;;;;;;;;;;4973234;28;20057;-85
2024/03/08 04:49:40;;;;;;;18.52;4.88;;;;;;;;;;4994036;28;20748;-84
2024/03/08 04:52:07;;;;;;;19.08;4.90;;;;;;;;;;4976212;28;20064;-84
2024/03/08 04:54:33;;;;;;;17.38;4.55;;;;;;;;;;4996490;28;20022;-85
2024/03/08 04:57:02;;;;;;;16.45;3.90;;;;;;;;;;4975257;28;20037;-85
2024/03/08 04:59:28;;;;;;;19.10;4.70;;;;;;;;;;4978813;28;20032;-86
2024/03/08 05:01:54;;;;;;;20.25;4.75;;;;;;;;;;5001134;28;20030;-86
2024/03/08 05:04:20;;;;;;;;;;;;;;;;;;4998343;28;20033;-86
2024/03/08 05:06:47;;;;;;;21.00;5.50;;;;;;;;;;4987475;28;19963;-83
2024/03/08 05:09:16;;;;;;;24.60;5.95;;;;;;;;;;4997095;28;20109;-85
2024/03/08 05:11:46;;;;;;;21.20;5.00;;;;;;;;;;4979417;28;20034;-85
2024/03/08 05:14:16;;;;;;;21.60;5.28;;;;;;;;;;4977422;28;20211;-86
2024/03/08 05:16:48;;;;;;;19.38;5.03;;;;;;;;;;4983427;28;20042;-85
2024/03/08 05:19:18;;;;;;;21.60;4.90;;;;;;;;;;4977870;28;20030;-86
2024/03/08 05:21:48;;;;;;;19.23;5.07;;;;;;;;;;5002883;28;20072;-85
2024/03/08 05:24:15;;;;;;;20.67;5.07;;;;;;;;;;4996739;28;20116;-85
2024/03/08 05:26:41;;;;;;;21.42;5.38;;;;;;;;;;5000808;28;21325;-85
2024/03/08 05:29:08;;;;;;;;;;;;;;;;;;4997701;28;20037;-84
2024/03/08 05:31:52;;;;;;;20.23;5.13;;;;;;;;;;5009341;28;19924;-85
2024/03/08 05:34:19;;;;;;;16.65;4.82;;;;;;;;;;5008505;28;20034;-85
2024/03/08 05:36:53;;;;;;;21.52;4.95;;;;;;;;;;5012170;28;20155;-84
2024/03/08 05:39:20;;;;;;;19.67;4.85;;;;;;;;;;4988622;28;20746;-85
2024/03/08 05:41:46;;;;;;;19.70;4.53;;;;;;;;;;4979510;28;20041;-85
2024/03/08 05:44:13;;;;;;;19.55;4.90;;;;;;;;;;4978751;28;20148;-85
2024/03/08 05:46:39;;;;;;;21.90;5.13;;;;;;;;;;5008258;28;20030;-84
2024/03/08 05:49:09;;;;;;;19.90;4.13;;;;;;;;;;5006355;28;20042;-85
2024/03/08 05:51:37;;;;;;;17.67;4.00;;;;;;;;;;4993326;28;20025;-85
2024/03/08 05:54:24;;;;;;;17.60;4.22;;;;;;;;;;4992801;28;20061;-85
2024/03/08 05:56:52;;;;;;;15.50;3.55;;;;;;;;;;4988825;28;20052;-86
2024/03/08 05:59:18;;;;;;;15.65;3.72;;;;;;;;;;4994449;28;20131;-85
2024/03/08 06:01:46;;;;;;;14.02;3.10;;;;;;;;;;4982281;28;20030;-85
2024/03/08 06:04:12;;;;;;;17.05;3.90;;;;;;;;;;4993658;28;20025;-85
2024/03/08 06:06:38;;;;;;;14.35;3.28;;;;;;;;;;4978137;28;20148;-86
2024/03/08 06:09:11;;;;;;;16.30;3.72;;;;;;;;;;4995402;28;20042;-85
2024/03/08 06:11:38;;;;;;;19.08;4.50;;;;;;;;;;4998440;28;20029;-85
2024/03/08 06:14:04;;;;;;;13.23;3.33;;;;;;;;;;4993971;28;20029;-86
2024/03/08 06:16:30;;;;;;;16.15;4.03;;;;;;;;;;4986983;28;20041;-85
2024/03/08 06:19:01;;;;;;;15.18;4.10;;;;;;;;;;5001713;28;20391;-84
2024/03/08 06:21:28;;;;;;;16.60;3.90;;;;;;;;;;4987187;28;20116;-85
2024/03/08 06:24:00;;;;;;;14.93;3.42;;;;;;;;;;4995318;28;20061;-85
2024/03/08 06:26:33;;;;;;;12.93;3.03;;;;;;;;;;4992013;28;20884;-85
2024/03/08 06:28:59;;;;;;;16.63;3.20;;;;;;;;;;4983841;28;20494;-84
2024/03/08 06:31:25;;;;;;;13.52;2.72;;;;;;;;;;4980528;28;20034;-85
2024/03/08 06:33:54;;;;;;;;;;;;;;;;;;4998722;28;20087;-85
2024/03/08 06:36:21;;;;;;;12.20;2.97;;;;;;;;;;4994306;28;20856;-86
2024/03/08 06:38:48;;;;;;;13.13;3.25;;;;;;;;;;4979026;28;20550;-85
2024/03/08 06:41:16;;;;;;;11.50;2.90;;;;;;;;;;4977195;28;20045;-85
2024/03/08 06:43:46;;;;;;;11.30;2.67;;;;;;;;;;4983399;28;20073;-85
2024/03/08 06:46:13;;;;;;;10.75;2.30;;;;;;;;;;4976460;28;20516;-85
2024/03/08 06:48:38;;;;;;;;;;;;;;;;;;4997887;28;20030;-84
2024/03/08 06:51:05;;;;;;;13.60;3.50;;;;;;;;;;4976393;28;19966;-85
2024/03/08 06:53:31;;;;;;;;;;;;;;;;;;4977661;28;20045;-85
2024/03/08 06:55:57;;;;;;;14.75;4.00;;;;;;;;;;4994342;28;20399;-85
2024/03/08 06:58:23;;;;;;;;;;;;;;;;;;4979735;28;20104;-84
2024/03/08 07:00:53;;;;;;;13.38;3.60;;;;;;;;;;4996653;28;19948;-82
2024/03/08 07:03:20;;;;;;;13.52;2.97;;;;;;;;;;4975979;28;20123;-84
2024/03/08 07:05:46;;;;;;;15.73;3.33;;;;;;;;;;4982181;28;21009;-85
2024/03/08 07:08:14;;;;;;;14.23;3.58;;;;;;;;;;4982690;28;20037;-84
2024/03/08 07:10:45;;;;;;;12.70;3.70;;;;;;;;;;4977983;28;20037;-85
2024/03/08 07:13:11;;;;;;;12.13;3.00;;;;;;;;;;4978798;28;20038;-83
2024/03/08 07:15:37;;;;;;;11.85;2.65;;;;;;;;;;4977450;28;20038;-84
2024/03/08 07:18:03;;;;;;;10.52;2.53;;;;;;;;;;4992035;28;20037;-85
2024/03/08 07:20:30;;;;;;;10.40;2.78;;;;;;;;;;4985071;28;21440;-84
2024/03/08 07:22:56;;;;;;;13.65;2.90;;;;;;;;;;4979658;28;20034;-84
2024/03/08 07:25:23;;;;;;;13.00;3.15;;;;;;;;;;5006761;28;20079;-84
2024/03/08 07:27:50;;;;;;;9.98;2.40;;;;;;;;;;4992798;28;20037;-84
2024/03/08 07:30:52;;;;;;;12.32;3.30;;;;;;;;;;5008829;28;20033;-84
2024/03/08 07:33:02;;;;;;;10.45;2.97;;;;;;;;;;5006465;28;20076;-83
2024/03/08 07:35:29;;;;;;;11.63;3.03;;;;;;;;;;4989105;28;20029;-84
2024/03/08 07:37:55;;;;;;;10.52;2.50;;;;;;;;;;5005464;28;20100;-84
2024/03/08 07:40:23;;;;;;;9.45;2.50;;;;;;;;;;4997732;28;20780;-83
2024/03/08 07:42:50;;;;;;;8.85;2.42;;;;;;;;;;4980439;28;20061;-83
2024/03/08 07:45:16;;;;;;;9.23;2.10;;;;;;;;;;4978855;28;20044;-84
2024/03/08 07:47:42;;;;;;;10.65;2.42;;;;;;;;;;5000139;28;20040;-84
2024/03/08 07:50:09;;;;;;;9.75;2.10;;;;;;;;;;4976867;28;20546;-84
2024/03/08 07:52:36;;;;;;;;;;;;;;;;;;4996284;28;20022;-84
2024/03/08 07:55:03;;;;;;;10.40;1.70;;;;;;;;;;4971866;28;20008;-83
2024/03/08 07:57:29;;;;;;;7.78;1.83;;;;;;;;;;4989368;28;20033;-84
2024/03/08 07:59:55;;;;;;;;;;;;;;;;;;4972734;28;20029;-83
2024/03/08 08:02:21;;;;;;;8.30;1.85;;;;;;;;;;4976227;28;20373;-83
2024/03/08 08:04:48;;;;;;;10.55;2.03;;;;;;;;;;4991938;28;20059;-83
2024/03/08 08:07:14;;;;;;;6.80;1.40;;;;;;;;;;4988291;28;20025;-82
2024/03/08 08:09:42;;;;;;;7.30;1.20;;;;;;;;;;4976500;28;20049;-83
2024/03/08 08:12:11;;;;;;;5.25;1.10;;;;;;;;;;4969171;28;20116;-84
2024/03/08 08:14:41;;;;;;;6.80;1.33;;;;;;;;;;4972375;28;20037;-82
2024/03/08 08:17:08;;;;;;;7.75;1.33;;;;;;;;;;4994596;28;20114;-83
2024/03/08 08:19:38;;;;;;;6.55;1.50;;;;;;;;;;4977001;28;20037;-84
2024/03/08 08:22:04;;;;;;;6.25;1.40;;;;;;;;;;4972841;28;20033;-83
2024/03/08 08:24:30;;;;;;;7.82;1.50;;;;;;;;;;4975848;28;20022;-83
2024/03/08 08:26:57;;;;;;;8.02;1.60;;;;;;;;;;4990540;28;20057;-83
2024/03/08 08:29:23;;;;;;;9.32;1.98;;;;;;;;;;4971801;28;20053;-83
2024/03/08 08:31:49;;;;;;;9.07;2.95;;;;;;;;;;4974165;28;20042;-84
2024/03/08 08:34:18;;;;;;;8.40;2.83;;;;;;;;;;4991207;28;20032;-83
2024/03/08 08:36:45;;;;;;;8.32;2.20;;;;;;;;;;4982481;28;20030;-84
2024/03/08 08:39:14;;;;;;;8.18;2.00;;;;;;;;;;4983972;28;20129;-83
2024/03/08 08:41:41;;;;;;;6.82;1.52;;;;;;;;;;5004355;28;20038;-85
2024/03/08 08:44:12;;;;;;;9.10;2.47;;;;;;;;;;4996479;28;20399;-85
2024/03/08 08:46:38;;;;;;;8.80;2.50;;;;;;;;;;4989051;28;20538;-85
2024/03/08 08:49:04;;;;;;;;;;;;;;;;;;4976891;28;20036;-82
2024/03/08 08:51:33;;;;;;;8.88;3.15;;;;;;;;;;4983327;28;19992;-84
2024/03/08 08:53:59;;;;;;;10.35;3.33;;;;;;;;;;4974008;28;20029;-83
2024/03/08 08:56:25;;;;;;;11.13;3.75;;;;;;;;;;4991537;28;20068;-82
2024/03/08 08:58:53;;;;;;;7.95;3.25;;;;;;;;;;4975940;28;20021;-84
2024/03/08 09:01:19;;;;;;;9.30;2.97;;;;;;;;;;4986764;28;22240;-81
2024/03/08 09:03:49;;;;;;;;;;;;;;;;;;4990696;28;20091;-84
2024/03/08 09:06:16;;;;;;;10.07;2.60;;;;;;;;;;4979064;28;19913;-83
2024/03/08 09:08:46;;;;;;;7.38;2.08;;;;;;;;;;4989318;28;20037;-83
2024/03/08 09:11:12;;;;;;;7.55;2.30;;;;;;;;;;4970865;28;20022;-81
2024/03/08 09:13:38;;;;;;;10.10;2.22;;;;;;;;;;4973361;28;20046;-84
2024/03/08 09:16:06;;;;;;;10.20;2.70;;;;;;;;;;4968708;28;20037;-83
2024/03/08 09:18:33;;;;;;;8.55;2.70;;;;;;;;;;4990290;28;20216;-82
2024/03/08 09:20:59;;;;;;;9.77;2.40;;;;;;;;;;4968803;28;20040;-82
2024/03/08 09:23:30;;;;;;;8.23;2.03;;;;;;;;;;4972711;28;20447;-81
2024/03/08 09:25:57;;;;;;;10.48;2.60;;;;;;;;;;4970690;28;20022;-82
2024/03/08 09:28:24;;;;;;;8.20;2.28;;;;;;;;;;4968232;28;20120;-82
2024/03/08 09:30:50;;;;;;;8.30;2.13;;;;;;;;;;4970547;28;20447;-82
2024/03/08 09:33:19;;;;;;;9.73;2.20;;;;;;;;;;4969818;28;20042;-82
2024/03/08 09:35:48;;;;;;;9.57;1.92;;;;;;;;;;4968899;28;20509;-82
2024/03/08 09:38:15;;;;;;;7.22;1.73;;;;;;;;;;4988359;28;20044;-82
2024/03/08 09:40:44;;;;;;;8.48;2.10;;;;;;;;;;4973353;28;20025;-82
2024/03/08 09:43:13;;;;;;;8.70;2.00;;;;;;;;;;4966041;28;20192;-82
2024/03/08 09:45:41;;;;;;;9.40;2.05;;;;;;;;;;4988220;28;20037;-82
2024/03/08 09:48:14;;;;;;;12.55;3.85;;;;;;;;;;4983431;28;20040;-84
2024/03/08 09:50:43;;;;;;;12.23;4.18;;;;;;;;;;4985930;28;20029;-83
2024/03/08 09:53:10;;;;;;;15.98;6.43;;;;;;;;;;4965691;28;20497;-81
2024/03/08 09:55:45;;;;;;;12.95;6.15;;;;;;;;;;4987164;28;20438;-84
2024/03/08 10:00:47;;;;;;;12.48;3.58;;;;;;;;;;4986132;28;20057;-84
2024/03/08 10:03:17;;;;;;;8.70;2.47;;;;;;;;;;4982213;28;20034;-84
2024/03/08 10:05:44;;;;;;;8.20;2.35;;;;;;;;;;4982596;28;20128;-84
2024/03/08 10:08:10;;;;;;;7.10;1.60;;;;;;;;;;4965066;28;20528;-84
2024/03/08 10:10:37;;;;;;;10.00;2.45;;;;;;;;;;4989146;28;20029;-83
2024/03/08 10:13:06;;;;;;;9.80;1.90;;;;;;;;;;4967576;28;20064;-83
2024/03/08 10:15:35;;;;;;;9.65;1.90;;;;;;;;;;4983775;28;20931;-82
2024/03/08 10:18:04;;;;;;;8.18;2.10;;;;;;;;;;4963518;28;20037;-83
2024/03/08 10:20:33;;;;;;;8.48;2.15;;;;;;;;;;4983671;28;20779;-81
2024/03/08 10:23:03;;;;;;;7.88;1.65;;;;;;;;;;4963864;28;20038;-85
2024/03/08 10:25:30;;;;;;;7.10;1.40;;;;;;;;;;4967409;28;20022;-82
2024/03/08 10:27:56;;;;;;;8.77;1.90;;;;;;;;;;4986757;28;20061;-84
2024/03/08 10:30:23;;;;;;;10.18;1.95;;;;;;;;;;4966069;28;20033;-82
2024/03/08 10:32:49;;;;;;;8.63;2.08;;;;;;;;;;4972776;28;20038;-84
2024/03/08 10:35:16;;;;;;;5.57;1.35;;;;;;;;;;4970276;28;20025;-82
2024/03/08 10:37:47;;;;;;;12.88;2.00;;;;;;;;;;4975266;28;20045;-85
2024/03/08 10:40:18;;;;;;;7.32;1.83;;;;;;;;;;4983091;28;20136;-82
2024/03/08 10:42:48;;;;;;;8.30;1.95;;;;;;;;;;4989297;28;20091;-81
2024/03/08 10:45:22;;;;;;;7.10;1.60;;;;;;;;;;4986482;28;20025;-83
2024/03/08 10:47:50;;;;;;;8.55;1.92;;;;;;;;;;4972377;28;20060;-82
2024/03/08 10:50:25;;;;;;;5.80;1.27;;;;;;;;;;4970333;28;20026;-82
2024/03/08 10:52:51;;;;;;;9.23;1.83;;;;;;;;;;4992288;28;20603;-82
2024/03/08 10:55:20;;;;;;;7.65;1.45;;;;;;;;;;4985968;28;20033;-82
2024/03/08 10:57:47;;;;;;;10.00;1.67;;;;;;;;;;4990186;28;20627;-81
2024/03/08 11:00:14;;;;;;;6.63;1.20;;;;;;;;;;4985481;28;20057;-81
2024/03/08 11:02:44;;;;;;;6.80;1.48;;;;;;;;;;4972312;28;20033;-82
2024/03/08 11:05:30;;;;;;;9.75;1.55;;;;;;;;;;4968389;28;20827;-82
2024/03/08 11:07:56;;;;;;;6.15;1.58;;;;;;;;;;4989364;28;20028;-81
2024/03/08 11:10:23;;;;;;;5.68;1.40;;;;;;;;;;4970953;28;20041;-82
2024/03/08 11:12:49;;;;;;;5.47;1.40;;;;;;;;;;4972943;28;20065;-83
2024/03/08 11:15:18;;;;;;;5.13;0.98;;;;;;;;;;4985340;28;20026;-82
2024/03/08 11:17:48;;;;;;;7.93;1.30;;;;;;;;;;4973395;28;20037;-82
2024/03/08 11:20:20;;;;;;;6.60;1.10;;;;;;;;;;4974525;28;20038;-83
2024/03/08 11:22:54;;;;;;;4.90;1.00;;;;;;;;;;4977067;28;20192;-83
2024/03/08 11:25:39;;;;;;;8.15;1.15;;;;;;;;;;4972770;28;20056;-83
2024/03/08 11:28:08;;;;;;;7.13;1.27;;;;;;;;;;4971461;28;20033;-82
2024/03/08 11:30:34;;;;;;;5.72;1.30;;;;;;;;;;4982318;28;20861;-82
2024/03/08 11:33:03;;;;;;;5.80;1.40;;;;;;;;;;4973388;28;20072;-83
2024/03/08 11:35:30;;;;;;;7.40;1.30;;;;;;;;;;4973417;28;20034;-82
2024/03/08 11:38:00;;;;;;;7.95;1.10;;;;;;;;;;4975902;28;20041;-82
2024/03/08 11:40:27;;;;;;;9.35;1.00;;;;;;;;;;4971775;28;20022;-83
2024/03/08 11:42:54;;;;;;;7.53;1.10;;;;;;;;;;4970440;28;20176;-83
2024/03/08 11:45:21;;;;;;;7.15;1.40;;;;;;;;;;4970957;28;20304;-82
2024/03/08 11:47:47;;;;;;;4.60;0.80;;;;;;;;;;4970150;28;20049;-84
2024/03/08 11:50:14;;;;;;;5.28;1.20;;;;;;;;;;4985679;28;20042;-82
2024/03/08 11:52:40;;;;;;;6.60;1.20;;;;;;;;;;4978396;28;20323;-82
2024/03/08 11:55:07;;;;;;;7.40;1.00;;;;;;;;;;4988964;28;20037;-83
2024/03/08 11:57:33;;;;;;;7.28;0.95;;;;;;;;;;4968051;28;20033;-82
2024/03/08 12:00:08;;;;;;;4.13;0.88;;;;;;;;;;4967092;28;20144;-80
2024/03/08 12:02:41;;;;;;;5.15;0.90;;;;;;;;;;4990154;28;20061;-82
2024/03/08 12:05:09;;;;;;;3.85;0.90;;;;;;;;;;4964736;28;20054;-82
2024/03/08 12:07:36;;;;;;;6.05;1.02;;;;;;;;;;4989009;28;20512;-81
2024/03/08 12:10:21;;;;;;;7.72;0.98;;;;;;;;;;4967834;28;20149;-83
2024/03/08 12:12:51;;;;;;;4.65;0.60;;;;;;;;;;4982254;28;20053;-83
2024/03/08 12:15:17;;;;;;;3.38;0.77;;;;;;;;;;4967492;28;20861;-82
2024/03/08 12:17:44;;;;;;;5.32;1.00;;;;;;;;;;4984582;28;20084;-83
2024/03/08 12:20:16;;;;;;;5.18;0.70;;;;;;;;;;4980837;28;20134;-83
2024/03/08 12:22:45;;;;;;;4.57;0.80;;;;;;;;;;4968887;28;20033;-83
2024/03/08 12:25:12;;;;;;;5.80;1.00;;;;;;;;;;4960972;28;20553;-82
2024/03/08 12:27:40;;;;;;;1.88;0.60;;;;;;;;;;4967189;28;20040;-82
2024/03/08 12:30:22;;;;;;;5.03;1.02;;;;;;;;;;4982716;28;20091;-81
2024/03/08 12:32:53;;;;;;;2.67;0.60;;;;;;;;;;4986352;28;20026;-80
2024/03/08 12:35:21;;;;;;;3.60;0.70;;;;;;;;;;4981424;28;20033;-81
2024/03/08 12:37:49;;;;;;;2.58;0.50;;;;;;;;;;4967448;28;20033;-82
2024/03/08 12:40:16;;;;;;;4.35;0.90;;;;;;;;;;4983309;28;20499;-82
2024/03/08 12:42:43;;;;;;;4.20;0.77;;;;;;;;;;4989316;28;20034;-82
2024/03/08 12:45:10;;;;;;;4.38;0.95;;;;;;;;;;4983525;28;20053;-83
2024/03/08 12:47:36;;;;;;;2.80;0.60;;;;;;;;;;4977326;28;20033;-82
2024/03/08 12:50:03;;;;;;;4.88;1.05;;;;;;;;;;4982437;28;20135;-82
2024/03/08 12:52:30;;;;;;;5.75;0.80;;;;;;;;;;4985837;28;20095;-82
2024/03/08 12:54:56;;;;;;;6.35;1.05;;;;;;;;;;4985209;28;20117;-81
2024/03/08 12:57:22;;;;;;;6.90;1.27;;;;;;;;;;4964955;28;20591;-81
2024/03/08 12:59:53;;;;;;;5.63;0.90;;;;;;;;;;4969526;28;20036;-81
2024/03/08 13:02:20;;;;;;;7.60;0.90;;;;;;;;;;4984168;28;20053;-82
2024/03/08 13:04:55;;;;;;;3.45;0.77;;;;;;;;;;4971502;28;20098;-81
2024/03/08 13:07:23;;;;;;;7.03;0.70;;;;;;;;;;4967138;28;20061;-80
2024/03/08 13:09:49;;;;;;;7.70;0.93;;;;;;;;;;4972190;28;20054;-80
2024/03/08 13:12:15;;;;;;;4.93;0.80;;;;;;;;;;4990841;28;20120;-81
2024/03/08 13:14:42;;;;;;;6.45;1.13;;;;;;;;;;4997359;28;20041;-82
2024/03/08 13:17:12;;;;;;;6.97;1.15;;;;;;;;;;4976488;28;20029;-81
2024/03/08 13:19:38;;;;;;;5.32;0.95;;;;;;;;;;4998023;28;20025;-81
2024/03/08 13:22:05;;;;;;;7.28;1.17;;;;;;;;;;4997518;28;20033;-81
2024/03/08 13:24:31;;;;;;;9.55;1.35;;;;;;;;;;4984431;28;20026;-81
2024/03/08 13:26:59;;;;;;;7.00;1.17;;;;;;;;;;5000128;28;20026;-82
2024/03/08 13:29:25;;;;;;;6.88;1.05;;;;;;;;;;4979663;28;20034;-83
2024/03/08 13:31:54;;;;;;;4.93;0.90;;;;;;;;;;4993544;28;20265;-83
2024/03/08 13:34:29;;;;;;;6.32;1.38;;;;;;;;;;4970019;28;20630;-83
2024/03/08 13:37:00;;;;;;;5.97;1.20;;;;;;;;;;4968865;28;20022;-84
2024/03/08 13:39:26;;;;;;;7.25;1.50;;;;;;;;;;4989516;28;20085;-84
2024/03/08 13:41:52;;;;;;;7.03;1.30;;;;;;;;;;4999401;28;20057;-83
2024/03/08 13:44:18;;;;;;;6.43;1.13;;;;;;;;;;4992569;28;20029;-82
2024/03/08 13:46:45;;;;;;;5.30;1.02;;;;;;;;;;4984104;28;20030;-83
2024/03/08 13:49:11;;;;;;;8.52;1.52;;;;;;;;;;4965666;28;20042;-81
2024/03/08 13:51:37;;;;;;;6.10;1.00;;;;;;;;;;4963959;28;20042;-82
2024/03/08 13:54:06;;;;;;;6.55;1.20;;;;;;;;;;4961328;28;20048;-82
2024/03/08 13:56:32;;;;;;;8.13;1.42;;;;;;;;;;4982950;28;20475;-81
2024/03/08 13:58:58;;;;;;;9.05;1.50;;;;;;;;;;4967096;28;20109;-82
2024/03/08 14:01:25;;;;;;;7.10;1.48;;;;;;;;;;4980095;28;20029;-81
2024/03/08 14:03:51;;;;;;;8.85;1.63;;;;;;;;;;4982357;28;20037;-83
2024/03/08 14:06:18;;;;;;;7.82;1.60;;;;;;;;;;4967968;28;21288;-83
2024/03/08 14:08:44;;;;;;;8.52;1.70;;;;;;;;;;4973045;28;20055;-82
2024/03/08 14:11:13;;;;;;;9.32;1.80;;;;;;;;;;4986413;28;20026;-82
2024/03/08 14:13:45;;;;;;;5.53;1.23;;;;;;;;;;4971389;28;20092;-82
2024/03/08 14:16:12;;;;;;;6.45;1.10;;;;;;;;;;4969370;28;20030;-82
2024/03/08 14:18:38;;;;;;;8.93;1.45;;;;;;;;;;4987668;28;20045;-82
2024/03/08 14:21:05;;;;;;;8.00;1.10;;;;;;;;;;4983127;28;20607;-81
2024/03/08 14:23:32;;;;;;;7.70;1.02;;;;;;;;;;4976517;28;20034;-84
2024/03/08 14:25:59;;;;;;;7.38;1.42;;;;;;;;;;4988406;28;20313;-81
2024/03/08 14:28:27;;;;;;;8.07;1.45;;;;;;;;;;4967174;28;20034;-82
2024/03/08 14:30:53;;;;;;;7.30;1.33;;;;;;;;;;4969651;28;20057;-82
2024/03/08 14:33:19;;;;;;;6.30;1.08;;;;;;;;;;4966553;28;21108;-82
2024/03/08 14:35:47;;;;;;;6.03;1.15;;;;;;;;;;4969069;28;20025;-82
2024/03/08 14:38:13;;;;;;;8.35;1.17;;;;;;;;;;4981906;28;20771;-83
2024/03/08 14:40:40;;;;;;;8.95;1.48;;;;;;;;;;4971405;28;20436;-82
2024/03/08 14:43:06;;;;;;;8.27;1.48;;;;;;;;;;4968320;28;20037;-84
2024/03/08 14:45:32;;;;;;;6.82;1.67;;;;;;;;;;4975684;28;20029;-83
2024/03/08 14:47:59;;;;;;;8.38;1.67;;;;;;;;;;4985952;28;20156;-82
2024/03/08 14:50:25;;;;;;;6.70;1.20;;;;;;;;;;4968933;28;20026;-84